sensor_id;sensor_type;location;lat;lon;timestamp;P1;durP1;ratioP1;P2;durP2;ratioP2
3249;SDS011;1637;42.020;23.992;2022-12-10T00:00:27;21.00;;;5.67;;
3249;SDS011;1637;42.020;23.992;2022-12-10T00:02:53;12.00;;;4.13;;
3249;SDS011;1637;42.020;23.992;2022-12-10T00:05:21;11.67;;;4.00;;
3249;SDS011;1637;42.020;23.992;2022-12-10T00:07:48;6.63;;;4.40;;
3249;SDS011;1637;42.020;23.992;2022-12-10T00:10:14;8.90;;;4.27;;
3249;SDS011;1637;42.020;23.992;2022-12-10T00:12:41;9.93;;;4.90;;
3249;SDS011;1637;42.020;23.992;2022-12-10T00:15:08;10.77;;;3.67;;
3249;SDS011;1637;42.020;23.992;2022-12-10T00:17:37;9.63;;;3.13;;
3249;SDS011;1637;42.020;23.992;2022-12-10T00:20:05;11.93;;;4.20;;
3249;SDS011;1637;42.020;23.992;2022-12-10T00:22:32;12.93;;;5.10;;
3249;SDS011;1637;42.020;23.992;2022-12-10T00:24:59;10.40;;;3.63;;
3249;SDS011;1637;42.020;23.992;2022-12-10T00:27:26;6.73;;;3.43;;
3249;SDS011;1637;42.020;23.992;2022-12-10T00:29:52;10.03;;;4.10;;
3249;SDS011;1637;42.020;23.992;2022-12-10T00:32:19;11.60;;;4.07;;
3249;SDS011;1637;42.020;23.992;2022-12-10T00:34:47;23.50;;;4.77;;
3249;SDS011;1637;42.020;23.992;2022-12-10T00:37:14;12.53;;;3.87;;
3249;SDS011;1637;42.020;23.992;2022-12-10T00:39:41;6.17;;;3.40;;
3249;SDS011;1637;42.020;23.992;2022-12-10T00:42:08;11.00;;;4.23;;
3249;SDS011;1637;42.020;23.992;2022-12-10T00:44:35;27.90;;;5.27;;
3249;SDS011;1637;42.020;23.992;2022-12-10T00:47:01;9.17;;;4.13;;
3249;SDS011;1637;42.020;23.992;2022-12-10T00:49:28;6.13;;;4.00;;
3249;SDS011;1637;42.020;23.992;2022-12-10T00:51:56;17.97;;;5.17;;
3249;SDS011;1637;42.020;23.992;2022-12-10T00:54:24;18.20;;;3.80;;
3249;SDS011;1637;42.020;23.992;2022-12-10T00:56:51;17.90;;;5.20;;
3249;SDS011;1637;42.020;23.992;2022-12-10T00:59:17;12.87;;;3.90;;
3249;SDS011;1637;42.020;23.992;2022-12-10T01:01:44;10.83;;;3.60;;
3249;SDS011;1637;42.020;23.992;2022-12-10T01:04:13;12.50;;;4.10;;
3249;SDS011;1637;42.020;23.992;2022-12-10T01:06:41;12.67;;;4.20;;
3249;SDS011;1637;42.020;23.992;2022-12-10T01:09:11;12.73;;;5.10;;
3249;SDS011;1637;42.020;23.992;2022-12-10T01:11:40;11.57;;;3.43;;
3249;SDS011;1637;42.020;23.992;2022-12-10T01:14:09;9.80;;;4.13;;
3249;SDS011;1637;42.020;23.992;2022-12-10T01:16:37;5.03;;;3.10;;
3249;SDS011;1637;42.020;23.992;2022-12-10T01:19:04;12.30;;;4.50;;
3249;SDS011;1637;42.020;23.992;2022-12-10T01:21:32;11.33;;;3.80;;
3249;SDS011;1637;42.020;23.992;2022-12-10T01:23:58;10.10;;;3.97;;
3249;SDS011;1637;42.020;23.992;2022-12-10T01:26:27;8.10;;;3.87;;
3249;SDS011;1637;42.020;23.992;2022-12-10T01:28:56;12.70;;;4.77;;
3249;SDS011;1637;42.020;23.992;2022-12-10T01:31:25;8.87;;;5.00;;
3249;SDS011;1637;42.020;23.992;2022-12-10T01:33:53;11.63;;;3.87;;
3249;SDS011;1637;42.020;23.992;2022-12-10T01:36:21;11.20;;;4.53;;
3249;SDS011;1637;42.020;23.992;2022-12-10T01:38:50;7.83;;;3.53;;
3249;SDS011;1637;42.020;23.992;2022-12-10T01:41:19;7.90;;;4.50;;
3249;SDS011;1637;42.020;23.992;2022-12-10T01:43:51;11.13;;;4.80;;
3249;SDS011;1637;42.020;23.992;2022-12-10T01:46:23;8.53;;;4.47;;
3249;SDS011;1637;42.020;23.992;2022-12-10T01:48:51;7.07;;;3.10;;
3249;SDS011;1637;42.020;23.992;2022-12-10T01:51:19;7.53;;;4.00;;
3249;SDS011;1637;42.020;23.992;2022-12-10T01:53:46;15.43;;;5.80;;
3249;SDS011;1637;42.020;23.992;2022-12-10T01:56:15;12.13;;;6.37;;
3249;SDS011;1637;42.020;23.992;2022-12-10T01:58:43;11.03;;;4.97;;
3249;SDS011;1637;42.020;23.992;2022-12-10T02:01:14;15.73;;;5.20;;
3249;SDS011;1637;42.020;23.992;2022-12-10T02:03:56;7.50;;;4.10;;
3249;SDS011;1637;42.020;23.992;2022-12-10T02:06:44;13.13;;;7.03;;
3249;SDS011;1637;42.020;23.992;2022-12-10T02:09:20;14.13;;;5.33;;
3249;SDS011;1637;42.020;23.992;2022-12-10T02:11:57;16.93;;;4.87;;
3249;SDS011;1637;42.020;23.992;2022-12-10T02:14:35;21.13;;;5.20;;
3249;SDS011;1637;42.020;23.992;2022-12-10T02:17:10;14.10;;;4.80;;
3249;SDS011;1637;42.020;23.992;2022-12-10T02:19:55;8.90;;;4.30;;
3249;SDS011;1637;42.020;23.992;2022-12-10T02:22:27;7.93;;;4.00;;
3249;SDS011;1637;42.020;23.992;2022-12-10T02:24:58;7.17;;;3.90;;
3249;SDS011;1637;42.020;23.992;2022-12-10T02:27:30;12.77;;;4.43;;
3249;SDS011;1637;42.020;23.992;2022-12-10T02:30:04;7.10;;;3.50;;
3249;SDS011;1637;42.020;23.992;2022-12-10T02:32:31;14.87;;;4.53;;
3249;SDS011;1637;42.020;23.992;2022-12-10T02:35:03;12.23;;;4.70;;
3249;SDS011;1637;42.020;23.992;2022-12-10T02:37:34;15.67;;;4.00;;
3249;SDS011;1637;42.020;23.992;2022-12-10T02:40:06;8.30;;;4.37;;
3249;SDS011;1637;42.020;23.992;2022-12-10T02:42:38;9.73;;;6.30;;
3249;SDS011;1637;42.020;23.992;2022-12-10T02:45:09;7.33;;;5.20;;
3249;SDS011;1637;42.020;23.992;2022-12-10T02:47:36;10.10;;;5.37;;
3249;SDS011;1637;42.020;23.992;2022-12-10T02:50:05;12.80;;;5.27;;
3249;SDS011;1637;42.020;23.992;2022-12-10T02:52:35;15.50;;;6.10;;
3249;SDS011;1637;42.020;23.992;2022-12-10T02:55:02;7.60;;;5.17;;
3249;SDS011;1637;42.020;23.992;2022-12-10T02:57:32;19.07;;;4.37;;
3249;SDS011;1637;42.020;23.992;2022-12-10T03:00:05;8.87;;;4.07;;
3249;SDS011;1637;42.020;23.992;2022-12-10T03:02:55;19.40;;;4.37;;
3249;SDS011;1637;42.020;23.992;2022-12-10T03:05:49;18.10;;;6.90;;
3249;SDS011;1637;42.020;23.992;2022-12-10T03:08:25;15.43;;;5.20;;
3249;SDS011;1637;42.020;23.992;2022-12-10T03:10:57;9.90;;;5.33;;
3249;SDS011;1637;42.020;23.992;2022-12-10T03:13:28;12.70;;;4.53;;
3249;SDS011;1637;42.020;23.992;2022-12-10T03:16:00;15.40;;;4.80;;
3249;SDS011;1637;42.020;23.992;2022-12-10T03:18:28;12.37;;;6.60;;
3249;SDS011;1637;42.020;23.992;2022-12-10T03:20:58;11.43;;;5.63;;
3249;SDS011;1637;42.020;23.992;2022-12-10T03:23:28;17.83;;;5.77;;
3249;SDS011;1637;42.020;23.992;2022-12-10T03:25:58;12.87;;;5.83;;
3249;SDS011;1637;42.020;23.992;2022-12-10T03:28:26;7.93;;;3.97;;
3249;SDS011;1637;42.020;23.992;2022-12-10T03:30:53;10.63;;;3.60;;
3249;SDS011;1637;42.020;23.992;2022-12-10T03:33:23;10.37;;;4.57;;
3249;SDS011;1637;42.020;23.992;2022-12-10T03:35:50;9.67;;;4.77;;
3249;SDS011;1637;42.020;23.992;2022-12-10T03:38:17;10.53;;;4.70;;
3249;SDS011;1637;42.020;23.992;2022-12-10T03:40:45;12.47;;;4.77;;
3249;SDS011;1637;42.020;23.992;2022-12-10T03:43:12;5.07;;;3.47;;
3249;SDS011;1637;42.020;23.992;2022-12-10T03:45:39;12.17;;;4.13;;
3249;SDS011;1637;42.020;23.992;2022-12-10T03:48:06;7.33;;;4.33;;
3249;SDS011;1637;42.020;23.992;2022-12-10T03:50:34;9.43;;;3.50;;
3249;SDS011;1637;42.020;23.992;2022-12-10T03:53:01;7.90;;;3.20;;
3249;SDS011;1637;42.020;23.992;2022-12-10T03:55:27;6.23;;;2.73;;
3249;SDS011;1637;42.020;23.992;2022-12-10T03:57:54;3.93;;;2.83;;
3249;SDS011;1637;42.020;23.992;2022-12-10T04:00:21;6.87;;;3.93;;
3249;SDS011;1637;42.020;23.992;2022-12-10T04:02:48;6.30;;;3.77;;
3249;SDS011;1637;42.020;23.992;2022-12-10T04:05:15;8.90;;;2.63;;
3249;SDS011;1637;42.020;23.992;2022-12-10T04:07:43;4.23;;;2.93;;
3249;SDS011;1637;42.020;23.992;2022-12-10T04:10:10;6.57;;;2.50;;
3249;SDS011;1637;42.020;23.992;2022-12-10T04:12:37;6.27;;;2.93;;
3249;SDS011;1637;42.020;23.992;2022-12-10T04:15:04;7.80;;;3.27;;
3249;SDS011;1637;42.020;23.992;2022-12-10T04:17:49;7.40;;;2.20;;
3249;SDS011;1637;42.020;23.992;2022-12-10T04:20:17;7.03;;;2.27;;
3249;SDS011;1637;42.020;23.992;2022-12-10T04:23:03;10.13;;;4.90;;
3249;SDS011;1637;42.020;23.992;2022-12-10T04:25:47;5.23;;;2.13;;
3249;SDS011;1637;42.020;23.992;2022-12-10T04:28:31;5.77;;;2.30;;
3249;SDS011;1637;42.020;23.992;2022-12-10T04:30:58;4.13;;;2.03;;
3249;SDS011;1637;42.020;23.992;2022-12-10T04:33:25;4.13;;;2.03;;
3249;SDS011;1637;42.020;23.992;2022-12-10T04:35:52;3.70;;;2.37;;
3249;SDS011;1637;42.020;23.992;2022-12-10T04:38:20;2.80;;;1.90;;
3249;SDS011;1637;42.020;23.992;2022-12-10T04:40:47;2.20;;;1.83;;
3249;SDS011;1637;42.020;23.992;2022-12-10T04:43:14;5.03;;;1.87;;
3249;SDS011;1637;42.020;23.992;2022-12-10T04:45:40;23.73;;;4.10;;
3249;SDS011;1637;42.020;23.992;2022-12-10T04:48:07;7.60;;;3.17;;
3249;SDS011;1637;42.020;23.992;2022-12-10T04:50:34;19.07;;;6.80;;
3249;SDS011;1637;42.020;23.992;2022-12-10T04:53:01;11.03;;;6.10;;
3249;SDS011;1637;42.020;23.992;2022-12-10T04:55:29;8.20;;;6.80;;
3249;SDS011;1637;42.020;23.992;2022-12-10T04:57:56;14.63;;;11.00;;
3249;SDS011;1637;42.020;23.992;2022-12-10T05:00:23;14.03;;;11.00;;
3249;SDS011;1637;42.020;23.992;2022-12-10T05:02:50;4.50;;;4.10;;
3249;SDS011;1637;42.020;23.992;2022-12-10T05:05:17;21.53;;;11.93;;
3249;SDS011;1637;42.020;23.992;2022-12-10T05:07:44;9.27;;;4.87;;
3249;SDS011;1637;42.020;23.992;2022-12-10T05:10:11;9.00;;;5.87;;
3249;SDS011;1637;42.020;23.992;2022-12-10T05:12:39;9.30;;;5.80;;
3249;SDS011;1637;42.020;23.992;2022-12-10T05:15:06;4.87;;;4.40;;
3249;SDS011;1637;42.020;23.992;2022-12-10T05:17:34;9.83;;;4.10;;
3249;SDS011;1637;42.020;23.992;2022-12-10T05:20:00;6.90;;;4.00;;
3249;SDS011;1637;42.020;23.992;2022-12-10T05:22:27;10.27;;;5.83;;
3249;SDS011;1637;42.020;23.992;2022-12-10T05:25:11;8.57;;;5.83;;
3249;SDS011;1637;42.020;23.992;2022-12-10T05:27:41;13.30;;;6.47;;
3249;SDS011;1637;42.020;23.992;2022-12-10T05:30:08;13.37;;;6.77;;
3249;SDS011;1637;42.020;23.992;2022-12-10T05:32:36;19.23;;;10.73;;
3249;SDS011;1637;42.020;23.992;2022-12-10T05:35:03;21.23;;;12.23;;
3249;SDS011;1637;42.020;23.992;2022-12-10T05:37:30;64.50;;;33.80;;
3249;SDS011;1637;42.020;23.992;2022-12-10T05:39:57;31.93;;;19.13;;
3249;SDS011;1637;42.020;23.992;2022-12-10T05:42:24;15.73;;;11.57;;
3249;SDS011;1637;42.020;23.992;2022-12-10T05:44:52;10.77;;;7.90;;
3249;SDS011;1637;42.020;23.992;2022-12-10T05:47:19;9.93;;;4.90;;
3249;SDS011;1637;42.020;23.992;2022-12-10T05:49:46;10.73;;;7.13;;
3249;SDS011;1637;42.020;23.992;2022-12-10T05:52:13;10.33;;;7.20;;
3249;SDS011;1637;42.020;23.992;2022-12-10T05:54:39;20.47;;;8.17;;
3249;SDS011;1637;42.020;23.992;2022-12-10T05:57:09;27.03;;;13.70;;
3249;SDS011;1637;42.020;23.992;2022-12-10T05:59:36;9.80;;;4.30;;
3249;SDS011;1637;42.020;23.992;2022-12-10T06:02:04;4.80;;;3.20;;
3249;SDS011;1637;42.020;23.992;2022-12-10T06:04:31;22.23;;;13.70;;
3249;SDS011;1637;42.020;23.992;2022-12-10T06:06:58;75.67;;;40.03;;
3249;SDS011;1637;42.020;23.992;2022-12-10T06:09:25;11.80;;;8.30;;
3249;SDS011;1637;42.020;23.992;2022-12-10T06:11:51;29.30;;;24.10;;
3249;SDS011;1637;42.020;23.992;2022-12-10T06:14:18;30.43;;;20.20;;
3249;SDS011;1637;42.020;23.992;2022-12-10T06:16:45;15.60;;;7.07;;
3249;SDS011;1637;42.020;23.992;2022-12-10T06:19:13;12.93;;;6.37;;
3249;SDS011;1637;42.020;23.992;2022-12-10T06:21:40;22.60;;;11.33;;
3249;SDS011;1637;42.020;23.992;2022-12-10T06:24:07;18.83;;;10.53;;
3249;SDS011;1637;42.020;23.992;2022-12-10T06:26:33;14.53;;;6.90;;
3249;SDS011;1637;42.020;23.992;2022-12-10T06:29:00;16.00;;;8.90;;
3249;SDS011;1637;42.020;23.992;2022-12-10T06:31:29;15.83;;;10.60;;
3249;SDS011;1637;42.020;23.992;2022-12-10T06:33:56;15.70;;;10.63;;
3249;SDS011;1637;42.020;23.992;2022-12-10T06:36:24;11.67;;;6.47;;
3249;SDS011;1637;42.020;23.992;2022-12-10T06:38:52;13.70;;;9.40;;
3249;SDS011;1637;42.020;23.992;2022-12-10T06:41:18;11.23;;;4.03;;
3249;SDS011;1637;42.020;23.992;2022-12-10T06:43:46;13.07;;;4.90;;
3249;SDS011;1637;42.020;23.992;2022-12-10T06:46:14;8.20;;;4.67;;
3249;SDS011;1637;42.020;23.992;2022-12-10T06:48:42;8.67;;;4.80;;
3249;SDS011;1637;42.020;23.992;2022-12-10T06:51:09;6.90;;;5.03;;
3249;SDS011;1637;42.020;23.992;2022-12-10T06:53:38;8.80;;;4.63;;
3249;SDS011;1637;42.020;23.992;2022-12-10T06:56:06;12.70;;;6.00;;
3249;SDS011;1637;42.020;23.992;2022-12-10T06:58:34;14.40;;;8.97;;
3249;SDS011;1637;42.020;23.992;2022-12-10T07:01:03;19.63;;;11.57;;
3249;SDS011;1637;42.020;23.992;2022-12-10T07:03:30;18.90;;;12.20;;
3249;SDS011;1637;42.020;23.992;2022-12-10T07:05:58;23.20;;;9.90;;
3249;SDS011;1637;42.020;23.992;2022-12-10T07:08:26;37.67;;;17.90;;
3249;SDS011;1637;42.020;23.992;2022-12-10T07:10:54;42.83;;;19.50;;
3249;SDS011;1637;42.020;23.992;2022-12-10T07:13:21;81.70;;;33.83;;
3249;SDS011;1637;42.020;23.992;2022-12-10T07:15:48;55.07;;;25.60;;
3249;SDS011;1637;42.020;23.992;2022-12-10T07:18:15;21.63;;;12.67;;
3249;SDS011;1637;42.020;23.992;2022-12-10T07:20:42;38.10;;;18.77;;
3249;SDS011;1637;42.020;23.992;2022-12-10T07:23:08;25.07;;;12.67;;
3249;SDS011;1637;42.020;23.992;2022-12-10T07:25:35;69.57;;;27.80;;
3249;SDS011;1637;42.020;23.992;2022-12-10T07:28:03;60.13;;;19.47;;
3249;SDS011;1637;42.020;23.992;2022-12-10T07:30:30;61.73;;;21.13;;
3249;SDS011;1637;42.020;23.992;2022-12-10T07:32:57;122.27;;;37.70;;
3249;SDS011;1637;42.020;23.992;2022-12-10T07:35:24;63.60;;;26.47;;
3249;SDS011;1637;42.020;23.992;2022-12-10T07:37:51;89.23;;;35.83;;
3249;SDS011;1637;42.020;23.992;2022-12-10T07:40:17;75.30;;;28.07;;
3249;SDS011;1637;42.020;23.992;2022-12-10T07:42:44;36.80;;;15.73;;
3249;SDS011;1637;42.020;23.992;2022-12-10T07:45:12;60.23;;;23.07;;
3249;SDS011;1637;42.020;23.992;2022-12-10T07:47:39;40.27;;;20.27;;
3249;SDS011;1637;42.020;23.992;2022-12-10T07:50:06;124.97;;;49.27;;
3249;SDS011;1637;42.020;23.992;2022-12-10T07:52:33;108.53;;;54.00;;
3249;SDS011;1637;42.020;23.992;2022-12-10T07:55:00;146.97;;;67.73;;
3249;SDS011;1637;42.020;23.992;2022-12-10T07:57:28;150.97;;;59.70;;
3249;SDS011;1637;42.020;23.992;2022-12-10T07:59:55;136.83;;;48.20;;
3249;SDS011;1637;42.020;23.992;2022-12-10T08:02:24;166.90;;;56.93;;
3249;SDS011;1637;42.020;23.992;2022-12-10T08:04:51;129.43;;;45.77;;
3249;SDS011;1637;42.020;23.992;2022-12-10T08:07:18;62.00;;;26.20;;
3249;SDS011;1637;42.020;23.992;2022-12-10T08:09:45;34.90;;;13.50;;
3249;SDS011;1637;42.020;23.992;2022-12-10T08:12:12;25.13;;;12.23;;
3249;SDS011;1637;42.020;23.992;2022-12-10T08:14:38;35.13;;;16.43;;
3249;SDS011;1637;42.020;23.992;2022-12-10T08:17:05;28.60;;;12.27;;
3249;SDS011;1637;42.020;23.992;2022-12-10T08:19:33;30.47;;;13.20;;
3249;SDS011;1637;42.020;23.992;2022-12-10T08:22:00;21.73;;;10.33;;
3249;SDS011;1637;42.020;23.992;2022-12-10T08:24:27;34.20;;;14.23;;
3249;SDS011;1637;42.020;23.992;2022-12-10T08:26:54;33.37;;;13.17;;
3249;SDS011;1637;42.020;23.992;2022-12-10T08:29:20;22.53;;;9.97;;
3249;SDS011;1637;42.020;23.992;2022-12-10T08:31:47;38.10;;;14.47;;
3249;SDS011;1637;42.020;23.992;2022-12-10T08:34:15;46.63;;;19.33;;
3249;SDS011;1637;42.020;23.992;2022-12-10T08:36:44;27.70;;;12.40;;
3249;SDS011;1637;42.020;23.992;2022-12-10T08:39:12;39.33;;;18.53;;
3249;SDS011;1637;42.020;23.992;2022-12-10T08:41:40;123.50;;;50.03;;
3249;SDS011;1637;42.020;23.992;2022-12-10T08:44:07;31.90;;;19.10;;
3249;SDS011;1637;42.020;23.992;2022-12-10T08:46:34;17.93;;;8.20;;
3249;SDS011;1637;42.020;23.992;2022-12-10T08:49:01;6.43;;;3.30;;
3249;SDS011;1637;42.020;23.992;2022-12-10T08:51:28;18.10;;;10.67;;
3249;SDS011;1637;42.020;23.992;2022-12-10T08:53:56;13.27;;;8.90;;
3249;SDS011;1637;42.020;23.992;2022-12-10T08:56:23;46.93;;;15.30;;
3249;SDS011;1637;42.020;23.992;2022-12-10T08:58:50;19.33;;;11.43;;
3249;SDS011;1637;42.020;23.992;2022-12-10T09:01:17;11.63;;;5.63;;
3249;SDS011;1637;42.020;23.992;2022-12-10T09:03:44;25.33;;;7.63;;
3249;SDS011;1637;42.020;23.992;2022-12-10T09:06:12;18.50;;;6.10;;
3249;SDS011;1637;42.020;23.992;2022-12-10T09:08:41;22.37;;;9.50;;
3249;SDS011;1637;42.020;23.992;2022-12-10T09:11:11;23.60;;;10.17;;
3249;SDS011;1637;42.020;23.992;2022-12-10T09:13:39;30.97;;;9.63;;
3249;SDS011;1637;42.020;23.992;2022-12-10T09:16:06;18.90;;;7.57;;
3249;SDS011;1637;42.020;23.992;2022-12-10T09:18:33;17.00;;;6.87;;
3249;SDS011;1637;42.020;23.992;2022-12-10T09:21:00;9.40;;;4.77;;
3249;SDS011;1637;42.020;23.992;2022-12-10T09:23:31;26.13;;;11.20;;
3249;SDS011;1637;42.020;23.992;2022-12-10T09:25:58;35.23;;;14.37;;
3249;SDS011;1637;42.020;23.992;2022-12-10T09:28:26;129.80;;;39.23;;
3249;SDS011;1637;42.020;23.992;2022-12-10T09:30:56;15.47;;;7.37;;
3249;SDS011;1637;42.020;23.992;2022-12-10T09:33:24;40.37;;;17.37;;
3249;SDS011;1637;42.020;23.992;2022-12-10T09:35:51;97.00;;;39.37;;
3249;SDS011;1637;42.020;23.992;2022-12-10T09:38:18;89.47;;;29.97;;
3249;SDS011;1637;42.020;23.992;2022-12-10T09:40:46;290.67;;;97.73;;
3249;SDS011;1637;42.020;23.992;2022-12-10T09:43:28;165.60;;;41.37;;
3249;SDS011;1637;42.020;23.992;2022-12-10T09:46:10;21.50;;;8.67;;
3249;SDS011;1637;42.020;23.992;2022-12-10T09:48:46;9.70;;;4.90;;
3249;SDS011;1637;42.020;23.992;2022-12-10T09:51:23;34.27;;;12.17;;
3249;SDS011;1637;42.020;23.992;2022-12-10T09:53:53;19.67;;;9.03;;
3249;SDS011;1637;42.020;23.992;2022-12-10T09:56:26;44.30;;;10.97;;
3249;SDS011;1637;42.020;23.992;2022-12-10T09:58:57;25.93;;;10.47;;
3249;SDS011;1637;42.020;23.992;2022-12-10T10:01:29;14.80;;;7.50;;
3249;SDS011;1637;42.020;23.992;2022-12-10T10:03:59;19.47;;;6.73;;
3249;SDS011;1637;42.020;23.992;2022-12-10T10:06:26;11.47;;;6.33;;
3249;SDS011;1637;42.020;23.992;2022-12-10T10:08:55;9.87;;;5.10;;
3249;SDS011;1637;42.020;23.992;2022-12-10T10:11:27;18.17;;;6.20;;
3249;SDS011;1637;42.020;23.992;2022-12-10T10:13:59;14.30;;;4.80;;
3249;SDS011;1637;42.020;23.992;2022-12-10T10:16:32;13.20;;;6.27;;
3249;SDS011;1637;42.020;23.992;2022-12-10T10:19:02;14.77;;;7.07;;
3249;SDS011;1637;42.020;23.992;2022-12-10T10:21:33;24.57;;;10.77;;
3249;SDS011;1637;42.020;23.992;2022-12-10T10:24:02;28.80;;;10.43;;
3249;SDS011;1637;42.020;23.992;2022-12-10T10:26:29;12.40;;;5.97;;
3249;SDS011;1637;42.020;23.992;2022-12-10T10:29:00;33.97;;;18.10;;
3249;SDS011;1637;42.020;23.992;2022-12-10T10:31:31;26.10;;;8.43;;
3249;SDS011;1637;42.020;23.992;2022-12-10T10:34:00;18.20;;;5.43;;
3249;SDS011;1637;42.020;23.992;2022-12-10T10:36:28;30.87;;;9.57;;
3249;SDS011;1637;42.020;23.992;2022-12-10T10:38:58;52.13;;;11.47;;
3249;SDS011;1637;42.020;23.992;2022-12-10T10:41:35;39.77;;;17.37;;
3249;SDS011;1637;42.020;23.992;2022-12-10T10:44:10;30.07;;;15.67;;
3249;SDS011;1637;42.020;23.992;2022-12-10T10:46:40;22.20;;;11.93;;
3249;SDS011;1637;42.020;23.992;2022-12-10T10:49:14;45.90;;;11.27;;
3249;SDS011;1637;42.020;23.992;2022-12-10T10:51:47;21.57;;;8.10;;
3249;SDS011;1637;42.020;23.992;2022-12-10T10:54:22;21.43;;;6.87;;
3249;SDS011;1637;42.020;23.992;2022-12-10T10:56:58;15.77;;;8.03;;
3249;SDS011;1637;42.020;23.992;2022-12-10T10:59:31;36.47;;;18.40;;
3249;SDS011;1637;42.020;23.992;2022-12-10T11:02:01;18.03;;;9.77;;
3249;SDS011;1637;42.020;23.992;2022-12-10T11:04:36;11.40;;;6.50;;
3249;SDS011;1637;42.020;23.992;2022-12-10T11:07:13;23.47;;;12.30;;
3249;SDS011;1637;42.020;23.992;2022-12-10T11:09:51;21.07;;;9.00;;
3249;SDS011;1637;42.020;23.992;2022-12-10T11:12:21;21.23;;;8.00;;
3249;SDS011;1637;42.020;23.992;2022-12-10T11:14:56;24.60;;;10.00;;
3249;SDS011;1637;42.020;23.992;2022-12-10T11:17:23;17.03;;;7.40;;
3249;SDS011;1637;42.020;23.992;2022-12-10T11:19:56;19.77;;;9.20;;
3249;SDS011;1637;42.020;23.992;2022-12-10T11:22:26;23.03;;;8.87;;
3249;SDS011;1637;42.020;23.992;2022-12-10T11:24:55;18.40;;;9.40;;
3249;SDS011;1637;42.020;23.992;2022-12-10T11:27:25;27.10;;;11.17;;
3249;SDS011;1637;42.020;23.992;2022-12-10T11:30:04;33.60;;;18.20;;
3249;SDS011;1637;42.020;23.992;2022-12-10T11:35:28;22.57;;;7.53;;
3249;SDS011;1637;42.020;23.992;2022-12-10T11:38:09;63.67;;;29.60;;
3249;SDS011;1637;42.020;23.992;2022-12-10T11:40:48;30.27;;;16.60;;
3249;SDS011;1637;42.020;23.992;2022-12-10T11:43:23;26.13;;;8.97;;
3249;SDS011;1637;42.020;23.992;2022-12-10T11:46:07;21.87;;;9.40;;
3249;SDS011;1637;42.020;23.992;2022-12-10T11:48:53;34.60;;;16.00;;
3249;SDS011;1637;42.020;23.992;2022-12-10T11:51:28;45.83;;;21.57;;
3249;SDS011;1637;42.020;23.992;2022-12-10T11:54:03;17.90;;;8.23;;
3249;SDS011;1637;42.020;23.992;2022-12-10T11:56:40;23.20;;;11.00;;
3249;SDS011;1637;42.020;23.992;2022-12-10T11:59:14;9.00;;;4.57;;
3249;SDS011;1637;42.020;23.992;2022-12-10T12:01:50;6.67;;;2.70;;
3249;SDS011;1637;42.020;23.992;2022-12-10T12:04:27;15.07;;;8.87;;
3249;SDS011;1637;42.020;23.992;2022-12-10T12:07:05;30.40;;;11.87;;
3249;SDS011;1637;42.020;23.992;2022-12-10T12:09:47;15.27;;;8.20;;
3249;SDS011;1637;42.020;23.992;2022-12-10T12:12:23;27.30;;;12.30;;
3249;SDS011;1637;42.020;23.992;2022-12-10T12:14:58;30.73;;;15.10;;
3249;SDS011;1637;42.020;23.992;2022-12-10T12:17:32;18.50;;;12.30;;
3249;SDS011;1637;42.020;23.992;2022-12-10T12:20:02;29.23;;;17.50;;
3249;SDS011;1637;42.020;23.992;2022-12-10T12:22:39;20.27;;;10.63;;
3249;SDS011;1637;42.020;23.992;2022-12-10T12:25:14;31.93;;;9.80;;
3249;SDS011;1637;42.020;23.992;2022-12-10T12:27:47;19.10;;;9.97;;
3249;SDS011;1637;42.020;23.992;2022-12-10T12:30:18;17.07;;;9.73;;
3249;SDS011;1637;42.020;23.992;2022-12-10T12:32:51;25.37;;;10.53;;
3249;SDS011;1637;42.020;23.992;2022-12-10T12:35:23;16.83;;;6.30;;
3249;SDS011;1637;42.020;23.992;2022-12-10T12:37:59;20.80;;;9.77;;
3249;SDS011;1637;42.020;23.992;2022-12-10T12:40:33;22.17;;;9.13;;
3249;SDS011;1637;42.020;23.992;2022-12-10T12:43:08;19.13;;;9.97;;
3249;SDS011;1637;42.020;23.992;2022-12-10T12:45:40;20.37;;;10.70;;
3249;SDS011;1637;42.020;23.992;2022-12-10T12:48:14;23.63;;;8.43;;
3249;SDS011;1637;42.020;23.992;2022-12-10T12:50:49;29.70;;;10.80;;
3249;SDS011;1637;42.020;23.992;2022-12-10T12:53:21;18.67;;;9.93;;
3249;SDS011;1637;42.020;23.992;2022-12-10T12:55:54;22.23;;;7.80;;
3249;SDS011;1637;42.020;23.992;2022-12-10T12:58:33;13.73;;;7.20;;
3249;SDS011;1637;42.020;23.992;2022-12-10T13:01:12;14.60;;;9.00;;
3249;SDS011;1637;42.020;23.992;2022-12-10T13:03:46;23.27;;;7.53;;
3249;SDS011;1637;42.020;23.992;2022-12-10T13:06:17;23.03;;;9.33;;
3249;SDS011;1637;42.020;23.992;2022-12-10T13:08:48;21.90;;;7.17;;
3249;SDS011;1637;42.020;23.992;2022-12-10T13:14:14;38.80;;;8.20;;
3249;SDS011;1637;42.020;23.992;2022-12-10T13:22:56;35.70;;;16.70;;
3249;SDS011;1637;42.020;23.992;2022-12-10T13:28:22;44.70;;;15.43;;
3249;SDS011;1637;42.020;23.992;2022-12-10T13:31:06;41.23;;;17.77;;
3249;SDS011;1637;42.020;23.992;2022-12-10T13:33:50;14.33;;;7.80;;
3249;SDS011;1637;42.020;23.992;2022-12-10T13:36:26;10.27;;;6.33;;
3249;SDS011;1637;42.020;23.992;2022-12-10T13:38:55;11.23;;;7.90;;
3249;SDS011;1637;42.020;23.992;2022-12-10T13:41:38;26.07;;;12.97;;
3249;SDS011;1637;42.020;23.992;2022-12-10T13:44:26;11.80;;;7.70;;
3249;SDS011;1637;42.020;23.992;2022-12-10T13:47:01;10.97;;;6.03;;
3249;SDS011;1637;42.020;23.992;2022-12-10T13:49:48;20.47;;;10.30;;
3249;SDS011;1637;42.020;23.992;2022-12-10T13:52:22;23.07;;;13.30;;
3249;SDS011;1637;42.020;23.992;2022-12-10T13:58:02;25.90;;;8.77;;
3249;SDS011;1637;42.020;23.992;2022-12-10T14:00:41;13.97;;;6.73;;
3249;SDS011;1637;42.020;23.992;2022-12-10T14:03:27;10.10;;;6.57;;
3249;SDS011;1637;42.020;23.992;2022-12-10T14:06:14;18.43;;;11.57;;
3249;SDS011;1637;42.020;23.992;2022-12-10T14:08:50;19.37;;;12.10;;
3249;SDS011;1637;42.020;23.992;2022-12-10T14:11:26;26.10;;;6.00;;
3249;SDS011;1637;42.020;23.992;2022-12-10T14:13:56;16.30;;;10.23;;
3249;SDS011;1637;42.020;23.992;2022-12-10T14:16:27;16.23;;;9.73;;
3249;SDS011;1637;42.020;23.992;2022-12-10T14:18:57;12.33;;;6.70;;
3249;SDS011;1637;42.020;23.992;2022-12-10T14:21:27;20.83;;;9.93;;
3249;SDS011;1637;42.020;23.992;2022-12-10T14:24:00;6.73;;;4.30;;
3249;SDS011;1637;42.020;23.992;2022-12-10T14:26:28;19.80;;;8.63;;
3249;SDS011;1637;42.020;23.992;2022-12-10T14:28:56;15.57;;;8.10;;
3249;SDS011;1637;42.020;23.992;2022-12-10T14:31:26;18.27;;;8.40;;
3249;SDS011;1637;42.020;23.992;2022-12-10T14:33:57;12.27;;;4.77;;
3249;SDS011;1637;42.020;23.992;2022-12-10T14:36:28;18.20;;;9.60;;
3249;SDS011;1637;42.020;23.992;2022-12-10T14:38:56;22.70;;;13.43;;
3249;SDS011;1637;42.020;23.992;2022-12-10T14:41:26;23.73;;;7.03;;
3249;SDS011;1637;42.020;23.992;2022-12-10T14:43:56;40.40;;;17.93;;
3249;SDS011;1637;42.020;23.992;2022-12-10T14:46:28;33.40;;;16.30;;
3249;SDS011;1637;42.020;23.992;2022-12-10T14:48:57;67.40;;;27.07;;
3249;SDS011;1637;42.020;23.992;2022-12-10T14:51:24;42.77;;;18.10;;
3249;SDS011;1637;42.020;23.992;2022-12-10T14:53:53;18.00;;;10.03;;
3249;SDS011;1637;42.020;23.992;2022-12-10T14:56:23;22.47;;;12.70;;
3249;SDS011;1637;42.020;23.992;2022-12-10T14:58:55;19.87;;;12.23;;
3249;SDS011;1637;42.020;23.992;2022-12-10T15:01:28;44.17;;;18.20;;
3249;SDS011;1637;42.020;23.992;2022-12-10T15:03:57;34.33;;;14.03;;
3249;SDS011;1637;42.020;23.992;2022-12-10T15:06:27;16.37;;;8.40;;
3249;SDS011;1637;42.020;23.992;2022-12-10T15:08:54;29.60;;;12.40;;
3249;SDS011;1637;42.020;23.992;2022-12-10T15:11:24;47.33;;;19.27;;
3249;SDS011;1637;42.020;23.992;2022-12-10T15:13:55;23.83;;;8.13;;
3249;SDS011;1637;42.020;23.992;2022-12-10T15:16:28;29.60;;;11.60;;
3249;SDS011;1637;42.020;23.992;2022-12-10T15:19:06;23.93;;;8.80;;
3249;SDS011;1637;42.020;23.992;2022-12-10T15:21:40;18.53;;;8.20;;